createdAt,value
2019-01-17T04:02:54.262Z,7.97
2019-01-17T04:05:22.992Z,7.00
2019-01-17T04:07:51.663Z,8.67
2019-01-17T04:10:20.342Z,8.40
2019-01-17T04:12:49.046Z,6.60
2019-01-17T04:15:17.786Z,8.27
2019-01-17T04:17:46.522Z,9.03
2019-01-17T04:20:16.815Z,9.93
2019-01-17T04:22:45.502Z,9.67
2019-01-17T04:25:14.213Z,8.50
2019-01-17T04:27:42.887Z,9.40
2019-01-17T04:30:13.944Z,9.43
2019-01-17T04:32:42.630Z,9.10
2019-01-17T04:35:11.389Z,8.27
2019-01-17T04:37:40.096Z,9.53
2019-01-17T04:40:09.290Z,10.53
2019-01-17T04:42:38.317Z,9.37
2019-01-17T04:45:07.233Z,7.80
2019-01-17T04:47:35.938Z,9.00
2019-01-17T04:50:05.813Z,8.13
2019-01-17T04:52:34.728Z,8.43
2019-01-17T04:55:05.422Z,8.67
2019-01-17T04:57:34.090Z,7.43
2019-01-17T05:00:02.874Z,8.60
2019-01-17T05:02:31.511Z,13.33
2019-01-17T05:05:00.262Z,9.07
2019-01-17T05:07:29.042Z,7.37
2019-01-17T05:09:57.699Z,9.13
2019-01-17T05:12:26.642Z,10.63
2019-01-17T05:14:55.286Z,8.20
2019-01-17T05:17:23.958Z,9.47
2019-01-17T05:19:52.667Z,11.67
2019-01-17T05:22:21.325Z,13.13
2019-01-17T05:24:50.014Z,10.83
2019-01-17T05:27:18.722Z,8.63
2019-01-17T05:29:47.387Z,15.40
2019-01-17T05:32:16.090Z,10.20
2019-01-17T05:34:44.754Z,12.80
2019-01-17T05:37:13.441Z,10.93
2019-01-17T05:39:42.149Z,9.37
2019-01-17T05:42:10.817Z,9.70
2019-01-17T05:44:41.254Z,11.90
2019-01-17T05:47:09.926Z,11.17
2019-01-17T05:49:38.617Z,9.33
2019-01-17T05:52:07.317Z,11.50
2019-01-17T05:54:35.984Z,8.77
2019-01-17T05:57:04.589Z,11.17
2019-01-17T05:59:33.561Z,9.20
2019-01-17T06:02:02.162Z,9.73
2019-01-17T06:04:30.850Z,9.90
2019-01-17T06:06:59.805Z,9.03
2019-01-17T06:09:28.568Z,13.00
2019-01-17T06:11:57.311Z,14.67
2019-01-17T06:14:25.978Z,13.20
2019-01-17T06:16:54.934Z,8.60
2019-01-17T06:19:23.649Z,13.77
2019-01-17T06:21:52.334Z,12.43
2019-01-17T06:24:21.314Z,14.97
2019-01-17T06:26:50.015Z,16.30
2019-01-17T06:29:18.721Z,13.67
2019-01-17T06:31:47.390Z,10.77
2019-01-17T06:34:16.072Z,10.87
2019-01-17T06:36:44.777Z,10.73
2019-01-17T06:39:13.437Z,10.63
2019-01-17T06:41:42.171Z,10.87
2019-01-17T06:44:10.822Z,11.40
2019-01-17T06:46:39.497Z,14.40
2019-01-17T06:49:08.202Z,12.57
2019-01-17T06:51:36.818Z,14.10
2019-01-17T06:54:05.726Z,16.03
2019-01-17T06:56:34.486Z,11.23
2019-01-17T06:59:03.130Z,11.50
2019-01-17T07:01:31.871Z,12.83
2019-01-17T07:04:00.481Z,11.67
2019-01-17T07:06:29.206Z,11.23
2019-01-17T07:08:57.867Z,9.80
2019-01-17T07:11:26.828Z,16.57
2019-01-17T07:13:55.575Z,14.10
2019-01-17T07:16:24.237Z,14.83
2019-01-17T07:18:53.242Z,11.70
2019-01-17T07:21:21.909Z,14.63
2019-01-17T07:23:50.593Z,14.43
2019-01-17T07:26:19.609Z,11.93
2019-01-17T07:28:48.272Z,12.27
2019-01-17T07:31:16.981Z,13.10
2019-01-17T07:33:45.642Z,13.47
2019-01-17T07:36:14.630Z,15.03
2019-01-17T07:38:43.342Z,11.73
2019-01-17T07:41:12.005Z,10.07
2019-01-17T07:43:40.648Z,16.13
2019-01-17T07:46:09.274Z,12.10
2019-01-17T07:48:37.961Z,15.07
2019-01-17T07:51:06.665Z,11.63
2019-01-17T07:53:35.621Z,13.93
2019-01-17T07:56:04.509Z,12.07
2019-01-17T07:58:33.109Z,12.53
2019-01-17T08:01:01.799Z,13.33
2019-01-17T08:03:30.459Z,21.17
2019-01-17T08:05:59.167Z,9.80
2019-01-17T08:08:27.873Z,12.77
2019-01-17T08:10:56.537Z,12.87
2019-01-17T08:13:25.222Z,15.63
2019-01-17T08:15:53.934Z,11.97
2019-01-17T08:18:22.599Z,17.43
2019-01-17T08:20:51.330Z,13.33
2019-01-17T08:23:19.957Z,13.80
2019-01-17T08:25:54.165Z,12.73
2019-01-17T08:28:19.085Z,12.37
2019-01-17T08:30:47.761Z,15.90
2019-01-17T08:33:16.471Z,13.63
2019-01-17T08:35:45.130Z,12.50
2019-01-17T08:38:13.846Z,11.97
2019-01-17T08:40:42.503Z,11.90
2019-01-17T08:43:11.185Z,11.23
2019-01-17T08:45:39.893Z,11.57
2019-01-17T08:48:08.558Z,9.27
2019-01-17T08:50:37.279Z,11.23
2019-01-17T08:53:05.938Z,11.67
2019-01-17T08:55:34.555Z,12.23
2019-01-17T08:58:03.213Z,16.00
2019-01-17T09:00:31.880Z,9.63
2019-01-17T09:03:00.598Z,12.63
2019-01-17T09:05:29.273Z,9.60
2019-01-17T09:07:57.938Z,16.00
2019-01-17T09:10:30.497Z,14.80
2019-01-17T09:12:59.206Z,15.53
2019-01-17T09:15:30.077Z,13.27
2019-01-17T09:17:58.717Z,15.53
2019-01-17T09:20:27.410Z,17.50
2019-01-17T09:22:56.125Z,13.07
2019-01-17T09:25:24.782Z,14.23
2019-01-17T09:27:53.506Z,11.00
2019-01-17T09:30:22.150Z,13.17
2019-01-17T09:32:50.839Z,10.83
2019-01-17T09:35:19.618Z,15.33
2019-01-17T09:37:48.301Z,10.77
2019-01-17T09:40:18.338Z,12.80
2019-01-17T09:42:47.456Z,10.57
2019-01-17T09:45:16.121Z,11.27
2019-01-17T09:47:44.813Z,14.87
2019-01-17T09:50:15.735Z,7.87
2019-01-17T09:52:44.405Z,9.13
2019-01-17T09:55:13.121Z,10.63
2019-01-17T09:57:42.035Z,9.77
2019-01-17T10:00:14.037Z,12.23
2019-01-17T10:02:42.761Z,13.63
2019-01-17T10:05:11.394Z,9.40
2019-01-17T10:07:40.014Z,11.17
2019-01-17T10:10:11.314Z,12.10
2019-01-17T10:12:40.042Z,10.03
2019-01-17T10:15:13.117Z,9.50
2019-01-17T10:18:05.245Z,7.57
2019-01-17T10:21:10.005Z,7.87
2019-01-17T10:24:18.665Z,12.73
2019-01-17T10:27:29.355Z,9.07
2019-01-17T10:30:43.186Z,11.73
2019-01-17T10:33:19.455Z,9.90
2019-01-17T10:36:32.020Z,9.40
2019-01-17T10:39:49.339Z,9.33
2019-01-17T10:42:41.424Z,10.50
2019-01-17T10:45:50.565Z,8.67
2019-01-17T10:48:54.989Z,10.10
2019-01-17T10:51:38.565Z,7.80
2019-01-17T10:54:53.390Z,10.53
2019-01-17T10:57:41.295Z,11.87
2019-01-17T11:00:41.462Z,8.90
2019-01-17T11:03:41.346Z,11.93
2019-01-17T11:06:43.548Z,14.83
2019-01-17T11:09:34.170Z,10.97
2019-01-17T11:12:42.770Z,8.63
2019-01-17T11:15:48.541Z,11.90
2019-01-17T11:18:57.307Z,10.87
2019-01-17T11:22:03.091Z,10.37
2019-01-17T11:24:58.969Z,11.33
2019-01-17T11:28:10.398Z,11.07
2019-01-17T11:31:13.477Z,9.77
2019-01-17T11:34:13.078Z,9.83
2019-01-17T11:37:06.918Z,6.70
2019-01-17T11:39:43.678Z,8.50
2019-01-17T11:42:24.005Z,8.87
2019-01-17T11:45:16.184Z,10.77
2019-01-17T11:48:31.429Z,9.47
2019-01-17T11:51:31.502Z,6.57
2019-01-17T11:54:41.078Z,9.57
2019-01-17T11:57:32.195Z,7.30
2019-01-17T12:01:00.630Z,8.17
2019-01-17T12:04:06.642Z,10.60
2019-01-17T12:06:35.366Z,7.70
2019-01-17T12:09:05.565Z,10.63
2019-01-17T12:11:34.269Z,7.80
2019-01-17T12:14:03.263Z,8.03
2019-01-17T12:16:32.381Z,8.13
2019-01-17T12:19:01.046Z,8.83
2019-01-17T12:21:29.831Z,9.20
2019-01-17T12:23:58.729Z,9.37
2019-01-17T12:26:27.433Z,6.67
2019-01-17T12:28:56.121Z,8.10
2019-01-17T12:31:24.783Z,7.13
2019-01-17T12:33:53.486Z,7.63
2019-01-17T12:36:22.146Z,7.47
2019-01-17T12:38:50.830Z,6.47
2019-01-17T12:41:19.547Z,7.67
2019-01-17T12:43:48.310Z,8.43
2019-01-17T12:46:17.031Z,7.33
2019-01-17T12:48:45.669Z,6.90
2019-01-17T12:51:14.362Z,8.63
2019-01-17T12:53:43.185Z,8.03
2019-01-17T12:56:11.941Z,10.40
2019-01-17T12:58:40.665Z,10.37
2019-01-17T13:01:09.325Z,9.37
2019-01-17T13:03:38.021Z,11.47
2019-01-17T13:06:06.662Z,10.23
2019-01-17T13:08:35.366Z,8.80
2019-01-17T13:11:04.493Z,10.50
2019-01-17T13:13:33.165Z,10.43
2019-01-17T13:16:01.885Z,8.63
2019-01-17T13:18:30.561Z,7.87
2019-01-17T13:20:59.509Z,8.53
2019-01-17T13:23:28.274Z,11.20
2019-01-17T13:25:57.025Z,8.67
2019-01-17T13:28:25.706Z,11.73
2019-01-17T13:30:54.379Z,8.17
2019-01-17T13:33:23.053Z,7.60
2019-01-17T13:35:52.021Z,7.90
2019-01-17T13:38:20.709Z,7.90
2019-01-17T13:40:49.398Z,5.53
2019-01-17T13:43:18.031Z,6.37
2019-01-17T13:45:46.661Z,3.87
2019-01-17T13:48:15.386Z,6.63
2019-01-17T13:50:44.065Z,4.27
2019-01-17T13:53:12.721Z,6.70
2019-01-17T13:55:41.434Z,6.67
2019-01-17T13:58:10.093Z,6.77
2019-01-17T14:00:38.796Z,6.40
2019-01-17T14:03:07.462Z,6.70
2019-01-17T14:05:36.176Z,9.43
2019-01-17T14:08:04.946Z,6.30
2019-01-17T14:10:33.626Z,5.47
2019-01-17T14:13:02.375Z,7.37
2019-01-17T14:15:31.073Z,4.40
2019-01-17T14:17:59.798Z,6.67
2019-01-17T14:20:28.549Z,5.10
2019-01-17T14:22:57.690Z,3.80
2019-01-17T14:25:26.349Z,3.00
2019-01-17T14:27:55.122Z,4.13
2019-01-17T14:30:29.649Z,4.27
2019-01-17T14:32:58.388Z,2.57
2019-01-17T14:35:27.166Z,3.20
2019-01-17T14:37:56.111Z,3.50
2019-01-17T14:40:24.814Z,2.40
2019-01-17T14:42:53.518Z,3.40
2019-01-17T14:45:22.198Z,2.80
2019-01-17T14:47:50.889Z,3.00
2019-01-17T14:50:21.910Z,3.40
2019-01-17T14:52:50.589Z,3.00
2019-01-17T14:55:19.302Z,2.10
2019-01-17T14:57:47.966Z,4.17
2019-01-17T15:00:21.541Z,2.03
2019-01-17T15:02:50.257Z,4.13
2019-01-17T15:05:19.114Z,2.40
2019-01-17T15:07:47.861Z,2.57
2019-01-17T15:10:22.362Z,3.03
2019-01-17T15:12:51.077Z,6.17
2019-01-17T15:15:19.724Z,3.07
2019-01-17T15:17:48.398Z,2.30
2019-01-17T15:20:18.657Z,1.63
2019-01-17T15:22:48.542Z,2.03
2019-01-17T15:25:17.221Z,2.83
2019-01-17T15:27:45.946Z,2.40
2019-01-17T15:30:17.209Z,1.90
2019-01-17T15:32:45.855Z,1.80
2019-01-17T15:35:14.570Z,1.83
2019-01-17T15:37:43.283Z,2.00
2019-01-17T15:40:15.362Z,5.73
2019-01-17T15:42:44.093Z,14.70
2019-01-17T15:45:12.753Z,12.73
2019-01-17T15:47:41.436Z,12.57
2019-01-17T15:50:10.286Z,18.20
2019-01-17T15:52:39.186Z,17.13
2019-01-17T15:55:09.485Z,27.47
2019-01-17T15:57:38.424Z,12.63
2019-01-17T16:00:12.838Z,18.07
2019-01-17T16:02:41.534Z,6.63
2019-01-17T16:05:10.217Z,6.23
2019-01-17T16:07:38.837Z,4.07
2019-01-17T16:10:08.513Z,12.70
2019-01-17T16:12:37.233Z,5.87
2019-01-17T16:15:09.213Z,7.13
2019-01-17T16:17:37.907Z,19.37
2019-01-17T16:20:07.306Z,8.13
2019-01-17T16:22:35.958Z,4.37
2019-01-17T16:25:07.136Z,5.53
2019-01-17T16:27:41.799Z,3.73
2019-01-17T16:30:09.550Z,3.97
2019-01-17T16:32:38.273Z,6.00
2019-01-17T16:35:06.941Z,7.27
2019-01-17T16:37:35.642Z,9.73
2019-01-17T16:40:04.778Z,5.50
2019-01-17T16:42:33.398Z,8.60
2019-01-17T16:45:02.113Z,8.33
2019-01-17T16:47:30.778Z,10.30
2019-01-17T16:49:59.462Z,5.80
2019-01-17T16:52:28.166Z,4.93
2019-01-17T16:54:56.849Z,9.27
2019-01-17T16:57:25.533Z,5.17
2019-01-17T16:59:54.199Z,4.47
2019-01-17T17:02:22.886Z,5.13
2019-01-17T17:04:51.618Z,6.73
2019-01-17T17:07:20.269Z,5.70
2019-01-17T17:09:48.986Z,7.27
2019-01-17T17:12:17.633Z,5.77
2019-01-17T17:14:46.339Z,4.03
2019-01-17T17:17:15.934Z,5.87
2019-01-17T17:19:44.617Z,7.23
2019-01-17T17:22:13.323Z,5.93
2019-01-17T17:24:41.986Z,4.77
2019-01-17T17:27:10.666Z,6.17
2019-01-17T17:29:39.373Z,5.27
2019-01-17T17:32:08.035Z,4.33
2019-01-17T17:34:36.750Z,11.23
2019-01-17T17:37:05.477Z,9.33
2019-01-17T17:39:34.257Z,9.63
2019-01-17T17:42:03.015Z,11.03
2019-01-17T17:44:31.678Z,7.03
2019-01-17T17:47:00.426Z,7.00
2019-01-17T17:49:29.379Z,7.10
2019-01-17T17:51:58.130Z,4.70
2019-01-17T17:54:26.834Z,5.93
2019-01-17T17:56:55.494Z,4.43
2019-01-17T17:59:24.381Z,3.53
2019-01-17T18:01:59.232Z,5.40
2019-01-17T18:04:28.317Z,4.30
2019-01-17T18:06:57.021Z,4.50
2019-01-17T18:09:25.641Z,4.37
2019-01-17T18:11:54.280Z,5.53
2019-01-17T18:14:23.006Z,7.73
2019-01-17T18:16:51.661Z,4.60
2019-01-17T18:19:20.452Z,4.00
2019-01-17T18:21:49.113Z,3.00
2019-01-17T18:24:17.834Z,4.80
2019-01-17T18:26:46.512Z,3.37
2019-01-17T18:29:15.206Z,4.40
2019-01-17T18:31:43.861Z,3.87
2019-01-17T18:34:12.806Z,6.13
2019-01-17T18:36:41.458Z,5.60
2019-01-17T18:39:12.913Z,6.40
2019-01-17T18:41:41.605Z,5.63
2019-01-17T18:44:10.321Z,6.43
2019-01-17T18:46:39.051Z,5.40
2019-01-17T18:49:07.858Z,5.10
2019-01-17T18:51:36.601Z,4.83
2019-01-17T18:54:05.378Z,6.60
2019-01-17T18:56:34.094Z,5.90
2019-01-17T18:59:02.782Z,3.80
2019-01-17T19:01:31.486Z,4.43
2019-01-17T19:04:00.167Z,5.20
2019-01-17T19:06:28.858Z,4.47
2019-01-17T19:08:57.482Z,4.40
2019-01-17T19:11:26.203Z,3.17
2019-01-17T19:13:54.906Z,5.60
2019-01-17T19:16:23.565Z,5.20
2019-01-17T19:18:52.298Z,4.10
2019-01-17T19:21:21.783Z,3.60
2019-01-17T19:23:50.689Z,3.63
2019-01-17T19:26:19.369Z,5.13
2019-01-17T19:28:48.022Z,3.80
2019-01-17T19:31:16.705Z,6.93
2019-01-17T19:33:45.421Z,4.77
2019-01-17T19:36:14.354Z,2.47
2019-01-17T19:38:43.067Z,4.03
2019-01-17T19:41:11.780Z,2.53
2019-01-17T19:43:40.456Z,3.83
2019-01-17T19:46:09.126Z,3.40
2019-01-17T19:48:37.831Z,4.57
2019-01-17T19:51:06.510Z,2.20
2019-01-17T19:53:35.187Z,3.20
2019-01-17T19:56:03.893Z,2.10
2019-01-17T19:58:32.553Z,2.60
2019-01-17T20:01:01.244Z,2.50
2019-01-17T20:03:29.949Z,2.60
2019-01-17T20:05:58.608Z,3.30
2019-01-17T20:08:27.314Z,1.43
2019-01-17T20:10:56.086Z,1.60
2019-01-17T20:13:24.761Z,2.17
2019-01-17T20:15:53.446Z,2.30
2019-01-17T20:18:22.301Z,2.17
2019-01-17T20:20:50.921Z,2.00
2019-01-17T20:23:19.925Z,1.20
2019-01-17T20:25:48.804Z,1.70
2019-01-17T20:28:17.594Z,1.93
2019-01-17T20:30:46.301Z,1.67
2019-01-17T20:33:14.969Z,1.53
2019-01-17T20:35:43.693Z,1.23
2019-01-17T20:38:12.629Z,1.40
2019-01-17T20:40:41.355Z,2.37
2019-01-17T20:43:10.046Z,1.70
2019-01-17T20:45:38.701Z,1.70
2019-01-17T20:48:08.053Z,2.07
2019-01-17T20:50:36.701Z,2.67
2019-01-17T20:53:05.382Z,2.53
2019-01-17T20:55:34.103Z,3.50
2019-01-17T20:58:02.794Z,1.90
2019-01-17T21:00:41.721Z,1.80
2019-01-17T21:03:12.018Z,1.40
2019-01-17T21:05:40.685Z,4.70
2019-01-17T21:08:09.389Z,1.60
2019-01-17T21:10:38.017Z,3.07
2019-01-17T21:13:06.758Z,1.30
2019-01-17T21:15:35.438Z,3.33
2019-01-17T21:18:04.126Z,1.77
2019-01-17T21:20:33.095Z,1.83
2019-01-17T21:23:01.890Z,2.07
2019-01-17T21:25:30.693Z,2.00
2019-01-17T21:27:59.689Z,3.80
2019-01-17T21:30:28.358Z,3.47
2019-01-17T21:32:57.050Z,3.03
2019-01-17T21:35:25.753Z,3.13
2019-01-17T21:37:54.421Z,2.10
2019-01-17T21:40:23.110Z,3.53
2019-01-17T21:42:51.809Z,2.60
2019-01-17T21:45:20.439Z,2.23
2019-01-17T21:47:49.154Z,3.20
2019-01-17T21:50:20.685Z,2.57
2019-01-17T21:52:49.393Z,2.87
2019-01-17T21:55:18.434Z,3.20
2019-01-17T21:57:47.085Z,2.83
2019-01-17T22:00:20.741Z,3.10
2019-01-17T22:02:49.453Z,3.23
2019-01-17T22:05:18.170Z,4.90
2019-01-17T22:07:46.830Z,3.80
2019-01-17T22:10:15.828Z,3.43
2019-01-17T22:12:44.550Z,5.13
2019-01-17T22:15:19.021Z,3.30
2019-01-17T22:17:47.989Z,3.20
2019-01-17T22:20:16.736Z,3.80
2019-01-17T22:22:45.381Z,3.17
2019-01-17T22:25:14.761Z,4.00
2019-01-17T22:27:43.495Z,5.23
2019-01-17T22:30:20.456Z,4.60
2019-01-17T22:32:49.234Z,4.90
2019-01-17T22:35:17.973Z,5.37
2019-01-17T22:37:46.633Z,4.63
2019-01-17T22:40:15.481Z,4.20
2019-01-17T22:42:44.210Z,4.33
2019-01-17T22:45:15.306Z,4.63
2019-01-17T22:47:44.053Z,5.70
2019-01-17T22:50:13.993Z,6.40
2019-01-17T22:52:43.133Z,4.57
2019-01-17T22:55:11.841Z,4.97
2019-01-17T22:57:40.758Z,4.40
